sensor_id;sensor_type;location;lat;lon;timestamp;temperature;humidity
62904;DHT22;49000;50.698;13.322;2023-10-19T00:00:34;5.60;1.00
62904;DHT22;49000;50.698;13.322;2023-10-19T00:03:01;5.70;1.00
62904;DHT22;49000;50.698;13.322;2023-10-19T00:05:32;5.70;1.00
62904;DHT22;49000;50.698;13.322;2023-10-19T00:08:01;5.80;1.00
62904;DHT22;49000;50.698;13.322;2023-10-19T00:10:31;5.70;1.00
62904;DHT22;49000;50.698;13.322;2023-10-19T00:13:01;5.80;1.00
62904;DHT22;49000;50.698;13.322;2023-10-19T00:15:33;5.90;1.00
62904;DHT22;49000;50.698;13.322;2023-10-19T00:18:00;5.80;1.00
62904;DHT22;49000;50.698;13.322;2023-10-19T00:20:47;5.50;1.00
62904;DHT22;49000;50.698;13.322;2023-10-19T00:23:13;5.80;1.00
62904;DHT22;49000;50.698;13.322;2023-10-19T00:25:42;5.50;1.00
62904;DHT22;49000;50.698;13.322;2023-10-19T00:28:08;5.90;1.00
62904;DHT22;49000;50.698;13.322;2023-10-19T00:30:34;5.80;1.00
62904;DHT22;49000;50.698;13.322;2023-10-19T00:33:02;6.10;1.00
62904;DHT22;49000;50.698;13.322;2023-10-19T00:35:41;6.00;1.00
62904;DHT22;49000;50.698;13.322;2023-10-19T00:38:14;5.90;1.00
62904;DHT22;49000;50.698;13.322;2023-10-19T00:41:09;5.80;1.00
62904;DHT22;49000;50.698;13.322;2023-10-19T00:43:36;6.10;1.00
62904;DHT22;49000;50.698;13.322;2023-10-19T00:46:03;5.60;1.00
62904;DHT22;49000;50.698;13.322;2023-10-19T00:48:36;5.60;1.00
62904;DHT22;49000;50.698;13.322;2023-10-19T00:51:02;5.70;1.00
62904;DHT22;49000;50.698;13.322;2023-10-19T00:53:47;6.00;1.00
62904;DHT22;49000;50.698;13.322;2023-10-19T00:56:15;5.80;1.00
62904;DHT22;49000;50.698;13.322;2023-10-19T00:58:42;5.80;1.00
62904;DHT22;49000;50.698;13.322;2023-10-19T01:01:13;5.60;1.00
62904;DHT22;49000;50.698;13.322;2023-10-19T01:03:39;5.70;1.00
62904;DHT22;49000;50.698;13.322;2023-10-19T01:06:05;6.10;1.00
62904;DHT22;49000;50.698;13.322;2023-10-19T01:08:36;5.90;1.00
62904;DHT22;49000;50.698;13.322;2023-10-19T01:11:10;5.70;1.00
62904;DHT22;49000;50.698;13.322;2023-10-19T01:13:39;5.90;1.00
62904;DHT22;49000;50.698;13.322;2023-10-19T01:16:14;5.60;1.00
62904;DHT22;49000;50.698;13.322;2023-10-19T01:18:46;5.80;1.00
62904;DHT22;49000;50.698;13.322;2023-10-19T01:21:12;5.80;1.00
62904;DHT22;49000;50.698;13.322;2023-10-19T01:23:37;5.70;2.00
62904;DHT22;49000;50.698;13.322;2023-10-19T01:26:04;5.70;76.20
62904;DHT22;49000;50.698;13.322;2023-10-19T01:28:38;5.20;99.90
62904;DHT22;49000;50.698;13.322;2023-10-19T01:31:14;5.60;99.90
62904;DHT22;49000;50.698;13.322;2023-10-19T01:33:43;5.40;99.90
62904;DHT22;49000;50.698;13.322;2023-10-19T01:36:10;5.10;99.90
62904;DHT22;49000;50.698;13.322;2023-10-19T01:38:35;5.30;99.90
62904;DHT22;49000;50.698;13.322;2023-10-19T01:41:03;5.20;99.90
62904;DHT22;49000;50.698;13.322;2023-10-19T01:43:33;5.30;99.90
62904;DHT22;49000;50.698;13.322;2023-10-19T01:45:59;5.30;99.90
62904;DHT22;49000;50.698;13.322;2023-10-19T01:48:37;5.10;99.90
62904;DHT22;49000;50.698;13.322;2023-10-19T01:51:05;5.30;99.90
62904;DHT22;49000;50.698;13.322;2023-10-19T01:53:33;4.90;1.00
62904;DHT22;49000;50.698;13.322;2023-10-19T01:56:02;5.30;1.00
62904;DHT22;49000;50.698;13.322;2023-10-19T01:58:31;5.30;1.00
62904;DHT22;49000;50.698;13.322;2023-10-19T02:00:59;5.20;1.00
62904;DHT22;49000;50.698;13.322;2023-10-19T02:03:28;5.40;1.00
62904;DHT22;49000;50.698;13.322;2023-10-19T02:05:58;5.40;1.00
62904;DHT22;49000;50.698;13.322;2023-10-19T02:08:27;5.10;2.50
62904;DHT22;49000;50.698;13.322;2023-10-19T02:10:53;4.80;40.40
62904;DHT22;49000;50.698;13.322;2023-10-19T02:13:22;5.40;43.30
62904;DHT22;49000;50.698;13.322;2023-10-19T02:15:48;5.40;75.70
62904;DHT22;49000;50.698;13.322;2023-10-19T02:18:14;5.20;83.00
62904;DHT22;49000;50.698;13.322;2023-10-19T02:20:40;5.50;90.30
62904;DHT22;49000;50.698;13.322;2023-10-19T02:23:07;5.10;95.00
62904;DHT22;49000;50.698;13.322;2023-10-19T02:25:33;5.10;99.90
62904;DHT22;49000;50.698;13.322;2023-10-19T02:28:03;5.00;99.90
62904;DHT22;49000;50.698;13.322;2023-10-19T02:30:32;5.40;99.90
62904;DHT22;49000;50.698;13.322;2023-10-19T02:32:59;5.40;99.90
62904;DHT22;49000;50.698;13.322;2023-10-19T02:35:26;5.50;99.90
62904;DHT22;49000;50.698;13.322;2023-10-19T02:37:53;5.50;99.90
62904;DHT22;49000;50.698;13.322;2023-10-19T02:40:18;5.40;99.90
62904;DHT22;49000;50.698;13.322;2023-10-19T02:42:49;5.10;99.90
62904;DHT22;49000;50.698;13.322;2023-10-19T02:45:19;5.50;99.90
62904;DHT22;49000;50.698;13.322;2023-10-19T02:47:45;5.10;99.90
62904;DHT22;49000;50.698;13.322;2023-10-19T02:50:12;5.10;99.90
62904;DHT22;49000;50.698;13.322;2023-10-19T02:52:42;5.10;99.90
62904;DHT22;49000;50.698;13.322;2023-10-19T02:55:09;5.40;99.90
62904;DHT22;49000;50.698;13.322;2023-10-19T02:57:36;5.10;99.90
62904;DHT22;49000;50.698;13.322;2023-10-19T03:00:05;5.20;99.90
62904;DHT22;49000;50.698;13.322;2023-10-19T03:02:37;4.90;99.90
62904;DHT22;49000;50.698;13.322;2023-10-19T03:05:04;5.00;99.90
62904;DHT22;49000;50.698;13.322;2023-10-19T03:07:38;4.90;99.90
62904;DHT22;49000;50.698;13.322;2023-10-19T03:10:05;5.00;99.90
62904;DHT22;49000;50.698;13.322;2023-10-19T03:12:31;5.00;99.90
62904;DHT22;49000;50.698;13.322;2023-10-19T03:14:58;5.00;99.90
62904;DHT22;49000;50.698;13.322;2023-10-19T03:17:25;4.90;99.90
62904;DHT22;49000;50.698;13.322;2023-10-19T03:19:52;4.60;99.90
62904;DHT22;49000;50.698;13.322;2023-10-19T03:22:17;4.80;99.90
62904;DHT22;49000;50.698;13.322;2023-10-19T03:24:44;4.70;99.90
62904;DHT22;49000;50.698;13.322;2023-10-19T03:27:14;4.80;99.90
62904;DHT22;49000;50.698;13.322;2023-10-19T03:29:46;5.00;99.90
62904;DHT22;49000;50.698;13.322;2023-10-19T03:32:12;4.70;99.90
62904;DHT22;49000;50.698;13.322;2023-10-19T03:34:38;4.40;99.90
62904;DHT22;49000;50.698;13.322;2023-10-19T03:37:04;4.90;99.90
62904;DHT22;49000;50.698;13.322;2023-10-19T03:39:37;4.80;99.90
62904;DHT22;49000;50.698;13.322;2023-10-19T03:42:04;4.80;99.90
62904;DHT22;49000;50.698;13.322;2023-10-19T03:44:32;4.50;99.90
62904;DHT22;49000;50.698;13.322;2023-10-19T03:47:10;5.00;99.90
62904;DHT22;49000;50.698;13.322;2023-10-19T03:49:44;5.00;99.90
62904;DHT22;49000;50.698;13.322;2023-10-19T03:52:12;4.90;99.90
62904;DHT22;49000;50.698;13.322;2023-10-19T03:54:37;4.80;99.90
62904;DHT22;49000;50.698;13.322;2023-10-19T03:57:08;4.70;99.90
62904;DHT22;49000;50.698;13.322;2023-10-19T03:59:51;5.10;99.90
62904;DHT22;49000;50.698;13.322;2023-10-19T04:02:26;4.90;99.90
62904;DHT22;49000;50.698;13.322;2023-10-19T04:05:00;5.10;99.90
62904;DHT22;49000;50.698;13.322;2023-10-19T04:07:27;5.20;99.90
62904;DHT22;49000;50.698;13.322;2023-10-19T04:09:56;4.90;99.90
62904;DHT22;49000;50.698;13.322;2023-10-19T04:12:24;4.90;99.90
62904;DHT22;49000;50.698;13.322;2023-10-19T04:14:50;4.90;99.90
62904;DHT22;49000;50.698;13.322;2023-10-19T04:17:15;4.90;99.90
62904;DHT22;49000;50.698;13.322;2023-10-19T04:19:42;4.60;99.90
62904;DHT22;49000;50.698;13.322;2023-10-19T04:22:09;5.00;99.90
62904;DHT22;49000;50.698;13.322;2023-10-19T04:24:36;5.00;99.90
62904;DHT22;49000;50.698;13.322;2023-10-19T04:27:02;4.60;99.90
62904;DHT22;49000;50.698;13.322;2023-10-19T04:29:28;4.80;99.90
62904;DHT22;49000;50.698;13.322;2023-10-19T04:31:54;5.10;99.90
62904;DHT22;49000;50.698;13.322;2023-10-19T04:34:20;5.00;99.90
62904;DHT22;49000;50.698;13.322;2023-10-19T04:36:50;5.00;99.90
62904;DHT22;49000;50.698;13.322;2023-10-19T04:39:17;4.80;99.90
62904;DHT22;49000;50.698;13.322;2023-10-19T04:41:45;5.10;99.90
62904;DHT22;49000;50.698;13.322;2023-10-19T04:44:11;4.70;99.90
62904;DHT22;49000;50.698;13.322;2023-10-19T04:46:37;5.00;99.90
62904;DHT22;49000;50.698;13.322;2023-10-19T04:49:03;5.00;99.90
62904;DHT22;49000;50.698;13.322;2023-10-19T04:51:29;5.00;99.90
62904;DHT22;49000;50.698;13.322;2023-10-19T04:53:55;5.00;99.90
62904;DHT22;49000;50.698;13.322;2023-10-19T04:56:21;4.90;99.90
62904;DHT22;49000;50.698;13.322;2023-10-19T04:58:47;4.50;99.90
62904;DHT22;49000;50.698;13.322;2023-10-19T05:01:13;5.00;99.90
62904;DHT22;49000;50.698;13.322;2023-10-19T05:03:40;4.70;99.90
62904;DHT22;49000;50.698;13.322;2023-10-19T05:06:06;5.00;99.90
62904;DHT22;49000;50.698;13.322;2023-10-19T05:08:31;4.90;99.90
62904;DHT22;49000;50.698;13.322;2023-10-19T05:10:58;5.00;99.90
62904;DHT22;49000;50.698;13.322;2023-10-19T05:13:27;4.80;99.90
62904;DHT22;49000;50.698;13.322;2023-10-19T05:15:54;4.60;99.90
62904;DHT22;49000;50.698;13.322;2023-10-19T05:18:21;5.20;99.90
62904;DHT22;49000;50.698;13.322;2023-10-19T05:20:47;5.00;99.90
62904;DHT22;49000;50.698;13.322;2023-10-19T05:23:12;5.10;99.90
62904;DHT22;49000;50.698;13.322;2023-10-19T05:25:41;5.10;99.90
62904;DHT22;49000;50.698;13.322;2023-10-19T05:28:07;5.10;99.90
62904;DHT22;49000;50.698;13.322;2023-10-19T05:30:35;5.00;99.90
62904;DHT22;49000;50.698;13.322;2023-10-19T05:33:01;4.80;99.90
62904;DHT22;49000;50.698;13.322;2023-10-19T05:35:28;5.00;99.90
62904;DHT22;49000;50.698;13.322;2023-10-19T05:37:55;4.70;99.90
62904;DHT22;49000;50.698;13.322;2023-10-19T05:40:23;5.10;99.90
62904;DHT22;49000;50.698;13.322;2023-10-19T05:42:49;5.30;99.90
62904;DHT22;49000;50.698;13.322;2023-10-19T05:45:15;5.30;99.90
62904;DHT22;49000;50.698;13.322;2023-10-19T05:47:42;5.30;99.90
62904;DHT22;49000;50.698;13.322;2023-10-19T05:50:11;5.20;99.90
62904;DHT22;49000;50.698;13.322;2023-10-19T05:52:43;5.30;99.90
62904;DHT22;49000;50.698;13.322;2023-10-19T05:55:10;5.30;99.90
62904;DHT22;49000;50.698;13.322;2023-10-19T05:57:39;5.30;99.90
62904;DHT22;49000;50.698;13.322;2023-10-19T06:00:11;5.00;99.90
62904;DHT22;49000;50.698;13.322;2023-10-19T06:02:44;5.50;99.90
62904;DHT22;49000;50.698;13.322;2023-10-19T06:05:11;5.50;99.90
62904;DHT22;49000;50.698;13.322;2023-10-19T06:07:36;5.20;99.90
62904;DHT22;49000;50.698;13.322;2023-10-19T06:10:02;5.40;99.90
62904;DHT22;49000;50.698;13.322;2023-10-19T06:12:32;5.60;99.90
62904;DHT22;49000;50.698;13.322;2023-10-19T06:14:59;5.60;99.90
62904;DHT22;49000;50.698;13.322;2023-10-19T06:17:28;5.40;99.90
62904;DHT22;49000;50.698;13.322;2023-10-19T06:19:54;5.50;99.90
62904;DHT22;49000;50.698;13.322;2023-10-19T06:22:21;5.40;99.90
62904;DHT22;49000;50.698;13.322;2023-10-19T06:24:46;5.50;99.90
62904;DHT22;49000;50.698;13.322;2023-10-19T06:27:12;5.40;99.90
62904;DHT22;49000;50.698;13.322;2023-10-19T06:29:37;5.40;99.90
62904;DHT22;49000;50.698;13.322;2023-10-19T06:32:04;5.30;99.90
62904;DHT22;49000;50.698;13.322;2023-10-19T06:34:29;5.50;99.90
62904;DHT22;49000;50.698;13.322;2023-10-19T06:36:55;5.40;99.90
62904;DHT22;49000;50.698;13.322;2023-10-19T06:39:21;5.40;99.90
62904;DHT22;49000;50.698;13.322;2023-10-19T06:41:47;5.50;99.90
62904;DHT22;49000;50.698;13.322;2023-10-19T06:44:13;5.40;99.90
62904;DHT22;49000;50.698;13.322;2023-10-19T06:46:39;5.40;99.90
62904;DHT22;49000;50.698;13.322;2023-10-19T06:49:06;5.40;99.90
62904;DHT22;49000;50.698;13.322;2023-10-19T06:51:33;5.40;99.90
62904;DHT22;49000;50.698;13.322;2023-10-19T06:53:58;5.10;99.90
62904;DHT22;49000;50.698;13.322;2023-10-19T06:56:24;5.40;99.90
62904;DHT22;49000;50.698;13.322;2023-10-19T06:58:50;5.40;99.90
62904;DHT22;49000;50.698;13.322;2023-10-19T07:01:15;5.30;99.90
62904;DHT22;49000;50.698;13.322;2023-10-19T07:03:42;5.30;99.90
62904;DHT22;49000;50.698;13.322;2023-10-19T07:06:07;4.90;99.90
62904;DHT22;49000;50.698;13.322;2023-10-19T07:08:33;5.20;99.90
62904;DHT22;49000;50.698;13.322;2023-10-19T07:10:59;5.20;99.90
62904;DHT22;49000;50.698;13.322;2023-10-19T07:13:25;5.60;99.90
62904;DHT22;49000;50.698;13.322;2023-10-19T07:15:51;5.30;99.90
62904;DHT22;49000;50.698;13.322;2023-10-19T07:18:17;5.10;99.90
62904;DHT22;49000;50.698;13.322;2023-10-19T07:20:42;5.70;99.90
62904;DHT22;49000;50.698;13.322;2023-10-19T07:23:09;5.60;99.90
62904;DHT22;49000;50.698;13.322;2023-10-19T07:25:50;5.60;99.90
62904;DHT22;49000;50.698;13.322;2023-10-19T07:28:25;5.40;99.90
62904;DHT22;49000;50.698;13.322;2023-10-19T07:30:54;5.70;99.90
62904;DHT22;49000;50.698;13.322;2023-10-19T07:33:19;5.50;99.90
62904;DHT22;49000;50.698;13.322;2023-10-19T07:35:46;5.60;99.90
62904;DHT22;49000;50.698;13.322;2023-10-19T07:38:15;5.20;99.90
62904;DHT22;49000;50.698;13.322;2023-10-19T07:40:43;5.60;99.90
62904;DHT22;49000;50.698;13.322;2023-10-19T07:43:11;5.60;99.90
62904;DHT22;49000;50.698;13.322;2023-10-19T07:45:36;5.50;99.90
62904;DHT22;49000;50.698;13.322;2023-10-19T07:48:03;6.00;99.90
62904;DHT22;49000;50.698;13.322;2023-10-19T07:50:32;5.90;99.90
62904;DHT22;49000;50.698;13.322;2023-10-19T07:52:58;6.10;99.90
62904;DHT22;49000;50.698;13.322;2023-10-19T07:55:24;6.00;99.90
62904;DHT22;49000;50.698;13.322;2023-10-19T07:57:51;6.20;99.90
62904;DHT22;49000;50.698;13.322;2023-10-19T08:00:19;6.20;99.90
62904;DHT22;49000;50.698;13.322;2023-10-19T08:02:44;6.30;99.90
62904;DHT22;49000;50.698;13.322;2023-10-19T08:05:14;6.10;99.90
62904;DHT22;49000;50.698;13.322;2023-10-19T08:07:40;6.30;99.90
62904;DHT22;49000;50.698;13.322;2023-10-19T08:10:09;6.50;99.90
62904;DHT22;49000;50.698;13.322;2023-10-19T08:12:36;6.50;99.90
62904;DHT22;49000;50.698;13.322;2023-10-19T08:15:02;6.00;99.90
62904;DHT22;49000;50.698;13.322;2023-10-19T08:17:29;6.70;99.90
62904;DHT22;49000;50.698;13.322;2023-10-19T08:19:55;6.50;99.90
62904;DHT22;49000;50.698;13.322;2023-10-19T08:22:22;6.70;99.90
62904;DHT22;49000;50.698;13.322;2023-10-19T08:24:49;6.40;99.90
62904;DHT22;49000;50.698;13.322;2023-10-19T08:27:15;7.00;99.90
62904;DHT22;49000;50.698;13.322;2023-10-19T08:29:42;6.90;99.90
62904;DHT22;49000;50.698;13.322;2023-10-19T08:32:08;7.00;99.90
62904;DHT22;49000;50.698;13.322;2023-10-19T08:34:37;7.10;99.90
62904;DHT22;49000;50.698;13.322;2023-10-19T08:37:04;7.20;99.90
62904;DHT22;49000;50.698;13.322;2023-10-19T08:39:30;7.30;99.90
62904;DHT22;49000;50.698;13.322;2023-10-19T08:42:03;7.50;99.90
62904;DHT22;49000;50.698;13.322;2023-10-19T08:44:29;7.60;99.90
62904;DHT22;49000;50.698;13.322;2023-10-19T08:46:55;7.80;99.90
62904;DHT22;49000;50.698;13.322;2023-10-19T08:49:23;7.80;99.90
62904;DHT22;49000;50.698;13.322;2023-10-19T08:51:49;8.00;99.90
62904;DHT22;49000;50.698;13.322;2023-10-19T08:54:17;8.00;99.90
62904;DHT22;49000;50.698;13.322;2023-10-19T08:56:43;8.10;99.90
62904;DHT22;49000;50.698;13.322;2023-10-19T08:59:10;7.90;85.50
62904;DHT22;49000;50.698;13.322;2023-10-19T09:01:36;8.10;75.20
62904;DHT22;49000;50.698;13.322;2023-10-19T09:04:02;8.10;40.70
62904;DHT22;49000;50.698;13.322;2023-10-19T09:06:28;8.10;62.70
62904;DHT22;49000;50.698;13.322;2023-10-19T09:08:57;8.20;65.90
62904;DHT22;49000;50.698;13.322;2023-10-19T09:11:25;8.20;65.40
62904;DHT22;49000;50.698;13.322;2023-10-19T09:13:52;8.30;70.60
62904;DHT22;49000;50.698;13.322;2023-10-19T09:16:21;8.50;92.40
62904;DHT22;49000;50.698;13.322;2023-10-19T09:18:48;8.50;85.50
62904;DHT22;49000;50.698;13.322;2023-10-19T09:21:19;8.70;95.70
62904;DHT22;49000;50.698;13.322;2023-10-19T09:23:55;8.90;94.90
62904;DHT22;49000;50.698;13.322;2023-10-19T09:26:21;9.10;99.70
62904;DHT22;49000;50.698;13.322;2023-10-19T09:28:51;9.10;49.40
62904;DHT22;49000;50.698;13.322;2023-10-19T09:31:17;9.00;24.10
62904;DHT22;49000;50.698;13.322;2023-10-19T09:33:45;9.00;25.90
62904;DHT22;49000;50.698;13.322;2023-10-19T09:36:12;9.00;20.90
62904;DHT22;49000;50.698;13.322;2023-10-19T09:41:12;9.00;10.60
62904;DHT22;49000;50.698;13.322;2023-10-19T09:43:44;8.90;17.40
62904;DHT22;49000;50.698;13.322;2023-10-19T09:46:11;9.00;20.90
62904;DHT22;49000;50.698;13.322;2023-10-19T09:48:42;9.10;22.20
62904;DHT22;49000;50.698;13.322;2023-10-19T09:51:08;9.20;56.20
62904;DHT22;49000;50.698;13.322;2023-10-19T09:53:36;9.40;21.30
62904;DHT22;49000;50.698;13.322;2023-10-19T09:56:04;9.50;10.40
62904;DHT22;49000;50.698;13.322;2023-10-19T09:58:36;9.70;13.10
62904;DHT22;49000;50.698;13.322;2023-10-19T10:01:04;9.90;15.20
62904;DHT22;49000;50.698;13.322;2023-10-19T10:03:51;10.00;1.00
62904;DHT22;49000;50.698;13.322;2023-10-19T10:06:27;10.10;1.00
62904;DHT22;49000;50.698;13.322;2023-10-19T10:08:53;10.30;1.00
62904;DHT22;49000;50.698;13.322;2023-10-19T10:13:46;10.20;1.00
62904;DHT22;49000;50.698;13.322;2023-10-19T10:16:15;10.20;1.00
62904;DHT22;49000;50.698;13.322;2023-10-19T10:18:42;10.10;1.00
62904;DHT22;49000;50.698;13.322;2023-10-19T10:21:20;10.20;1.00
62904;DHT22;49000;50.698;13.322;2023-10-19T10:23:52;10.20;1.00
62904;DHT22;49000;50.698;13.322;2023-10-19T10:26:19;10.20;1.00
62904;DHT22;49000;50.698;13.322;2023-10-19T10:28:47;10.30;1.00
62904;DHT22;49000;50.698;13.322;2023-10-19T10:31:20;10.30;1.00
62904;DHT22;49000;50.698;13.322;2023-10-19T10:33:51;10.30;1.00
62904;DHT22;49000;50.698;13.322;2023-10-19T10:36:20;10.50;1.00
62904;DHT22;49000;50.698;13.322;2023-10-19T10:38:50;10.50;1.00
62904;DHT22;49000;50.698;13.322;2023-10-19T10:41:25;10.40;1.00
62904;DHT22;49000;50.698;13.322;2023-10-19T10:43:55;10.40;1.00
62904;DHT22;49000;50.698;13.322;2023-10-19T10:46:23;10.30;1.00
62904;DHT22;49000;50.698;13.322;2023-10-19T10:48:49;10.30;1.00
62904;DHT22;49000;50.698;13.322;2023-10-19T10:51:19;10.40;1.00
62904;DHT22;49000;50.698;13.322;2023-10-19T10:53:52;10.40;1.00
62904;DHT22;49000;50.698;13.322;2023-10-19T10:56:23;10.40;1.00
62904;DHT22;49000;50.698;13.322;2023-10-19T10:58:49;10.60;1.00
62904;DHT22;49000;50.698;13.322;2023-10-19T11:01:15;10.60;1.00
62904;DHT22;49000;50.698;13.322;2023-10-19T11:03:41;10.60;1.00
62904;DHT22;49000;50.698;13.322;2023-10-19T11:06:12;10.80;1.00
62904;DHT22;49000;50.698;13.322;2023-10-19T11:08:38;10.90;1.00
62904;DHT22;49000;50.698;13.322;2023-10-19T11:11:09;11.00;1.00
62904;DHT22;49000;50.698;13.322;2023-10-19T11:13:38;11.30;1.00
62904;DHT22;49000;50.698;13.322;2023-10-19T11:16:06;11.50;1.00
62904;DHT22;49000;50.698;13.322;2023-10-19T11:18:38;11.60;1.00
62904;DHT22;49000;50.698;13.322;2023-10-19T11:21:09;11.60;99.90
62904;DHT22;49000;50.698;13.322;2023-10-19T11:23:48;11.60;99.90
62904;DHT22;49000;50.698;13.322;2023-10-19T11:26:17;11.40;99.90
62904;DHT22;49000;50.698;13.322;2023-10-19T11:28:42;11.50;99.90
62904;DHT22;49000;50.698;13.322;2023-10-19T11:31:15;11.50;99.90
62904;DHT22;49000;50.698;13.322;2023-10-19T11:33:42;11.60;99.90
62904;DHT22;49000;50.698;13.322;2023-10-19T11:36:09;11.60;99.90
62904;DHT22;49000;50.698;13.322;2023-10-19T11:38:44;11.70;99.90
62904;DHT22;49000;50.698;13.322;2023-10-19T11:41:11;11.90;99.90
62904;DHT22;49000;50.698;13.322;2023-10-19T11:43:39;12.00;99.90
62904;DHT22;49000;50.698;13.322;2023-10-19T11:46:04;12.10;1.00
62904;DHT22;49000;50.698;13.322;2023-10-19T11:48:32;12.40;99.90
62904;DHT22;49000;50.698;13.322;2023-10-19T11:50:57;12.60;99.90
62904;DHT22;49000;50.698;13.322;2023-10-19T11:53:23;12.50;99.90
62904;DHT22;49000;50.698;13.322;2023-10-19T11:55:48;12.70;99.90
62904;DHT22;49000;50.698;13.322;2023-10-19T11:58:14;12.60;99.90
62904;DHT22;49000;50.698;13.322;2023-10-19T12:00:41;12.50;99.90
62904;DHT22;49000;50.698;13.322;2023-10-19T12:03:12;12.60;99.90
62904;DHT22;49000;50.698;13.322;2023-10-19T12:05:38;12.80;99.90
62904;DHT22;49000;50.698;13.322;2023-10-19T12:08:04;12.80;99.90
62904;DHT22;49000;50.698;13.322;2023-10-19T12:10:30;12.90;99.90
62904;DHT22;49000;50.698;13.322;2023-10-19T12:13:02;12.90;99.90
62904;DHT22;49000;50.698;13.322;2023-10-19T12:15:27;13.20;99.90
62904;DHT22;49000;50.698;13.322;2023-10-19T12:17:53;13.50;99.90
62904;DHT22;49000;50.698;13.322;2023-10-19T12:20:20;13.40;99.90
62904;DHT22;49000;50.698;13.322;2023-10-19T12:22:47;13.30;99.90
62904;DHT22;49000;50.698;13.322;2023-10-19T12:25:13;13.40;99.90
62904;DHT22;49000;50.698;13.322;2023-10-19T12:27:40;13.40;99.90
62904;DHT22;49000;50.698;13.322;2023-10-19T12:30:06;13.60;99.90
62904;DHT22;49000;50.698;13.322;2023-10-19T12:32:42;13.80;99.90
62904;DHT22;49000;50.698;13.322;2023-10-19T12:35:08;13.90;99.90
62904;DHT22;49000;50.698;13.322;2023-10-19T12:37:37;14.30;99.90
62904;DHT22;49000;50.698;13.322;2023-10-19T12:40:12;14.70;99.90
62904;DHT22;49000;50.698;13.322;2023-10-19T12:42:55;14.80;1.00
62904;DHT22;49000;50.698;13.322;2023-10-19T12:45:22;14.90;1.00
62904;DHT22;49000;50.698;13.322;2023-10-19T12:47:48;14.90;1.00
62904;DHT22;49000;50.698;13.322;2023-10-19T12:50:14;15.00;1.00
62904;DHT22;49000;50.698;13.322;2023-10-19T12:52:41;15.30;1.00
62904;DHT22;49000;50.698;13.322;2023-10-19T12:55:07;15.30;1.00
62904;DHT22;49000;50.698;13.322;2023-10-19T12:57:35;15.00;1.00
62904;DHT22;49000;50.698;13.322;2023-10-19T13:00:00;14.50;1.00
62904;DHT22;49000;50.698;13.322;2023-10-19T13:02:46;14.20;1.00
62904;DHT22;49000;50.698;13.322;2023-10-19T13:05:11;14.10;1.00
62904;DHT22;49000;50.698;13.322;2023-10-19T13:07:41;14.30;4.40
62904;DHT22;49000;50.698;13.322;2023-10-19T13:10:07;14.40;1.00
62904;DHT22;49000;50.698;13.322;2023-10-19T13:12:33;14.40;1.00
62904;DHT22;49000;50.698;13.322;2023-10-19T13:14:58;14.30;1.00
62904;DHT22;49000;50.698;13.322;2023-10-19T13:17:24;14.10;1.00
62904;DHT22;49000;50.698;13.322;2023-10-19T13:19:50;14.10;1.00
62904;DHT22;49000;50.698;13.322;2023-10-19T13:22:21;14.10;1.00
62904;DHT22;49000;50.698;13.322;2023-10-19T13:24:47;14.20;1.00
62904;DHT22;49000;50.698;13.322;2023-10-19T13:27:12;14.40;1.00
62904;DHT22;49000;50.698;13.322;2023-10-19T13:29:39;14.40;1.00
62904;DHT22;49000;50.698;13.322;2023-10-19T13:32:07;14.30;1.00
62904;DHT22;49000;50.698;13.322;2023-10-19T13:34:32;14.40;1.00
62904;DHT22;49000;50.698;13.322;2023-10-19T13:36:58;14.50;1.00
62904;DHT22;49000;50.698;13.322;2023-10-19T13:39:23;14.40;1.00
62904;DHT22;49000;50.698;13.322;2023-10-19T13:41:53;14.60;1.00
62904;DHT22;49000;50.698;13.322;2023-10-19T13:44:19;14.70;1.00
62904;DHT22;49000;50.698;13.322;2023-10-19T13:46:46;14.80;1.00
62904;DHT22;49000;50.698;13.322;2023-10-19T13:49:12;15.00;1.00
62904;DHT22;49000;50.698;13.322;2023-10-19T13:51:38;15.00;1.00
62904;DHT22;49000;50.698;13.322;2023-10-19T13:54:05;15.10;1.00
62904;DHT22;49000;50.698;13.322;2023-10-19T13:56:30;15.00;1.00
62904;DHT22;49000;50.698;13.322;2023-10-19T13:58:56;15.10;1.00
62904;DHT22;49000;50.698;13.322;2023-10-19T14:01:21;15.20;1.00
62904;DHT22;49000;50.698;13.322;2023-10-19T14:03:53;15.20;1.00
62904;DHT22;49000;50.698;13.322;2023-10-19T14:06:22;15.10;1.00
62904;DHT22;49000;50.698;13.322;2023-10-19T14:08:49;15.10;1.00
62904;DHT22;49000;50.698;13.322;2023-10-19T14:11:15;15.20;1.00
62904;DHT22;49000;50.698;13.322;2023-10-19T14:13:40;15.10;1.00
62904;DHT22;49000;50.698;13.322;2023-10-19T14:16:08;15.10;1.00
62904;DHT22;49000;50.698;13.322;2023-10-19T14:18:34;15.20;1.00
62904;DHT22;49000;50.698;13.322;2023-10-19T14:21:00;15.10;1.00
62904;DHT22;49000;50.698;13.322;2023-10-19T14:23:26;15.10;1.00
62904;DHT22;49000;50.698;13.322;2023-10-19T14:25:52;15.00;1.00
62904;DHT22;49000;50.698;13.322;2023-10-19T14:28:18;15.00;1.00
62904;DHT22;49000;50.698;13.322;2023-10-19T14:30:44;14.90;1.00
62904;DHT22;49000;50.698;13.322;2023-10-19T14:33:10;14.80;1.00
62904;DHT22;49000;50.698;13.322;2023-10-19T14:35:36;14.80;1.00
62904;DHT22;49000;50.698;13.322;2023-10-19T14:38:04;14.70;1.00
62904;DHT22;49000;50.698;13.322;2023-10-19T14:40:31;14.40;1.00
62904;DHT22;49000;50.698;13.322;2023-10-19T14:42:57;14.40;1.00
62904;DHT22;49000;50.698;13.322;2023-10-19T14:45:27;14.50;1.00
62904;DHT22;49000;50.698;13.322;2023-10-19T14:47:56;14.60;1.00
62904;DHT22;49000;50.698;13.322;2023-10-19T14:50:29;14.60;1.00
62904;DHT22;49000;50.698;13.322;2023-10-19T14:52:54;14.60;1.00
62904;DHT22;49000;50.698;13.322;2023-10-19T14:55:21;14.50;1.00
62904;DHT22;49000;50.698;13.322;2023-10-19T14:57:48;14.50;1.00
62904;DHT22;49000;50.698;13.322;2023-10-19T15:00:15;14.60;1.00
62904;DHT22;49000;50.698;13.322;2023-10-19T15:02:53;14.50;1.00
62904;DHT22;49000;50.698;13.322;2023-10-19T15:05:22;14.50;1.00
62904;DHT22;49000;50.698;13.322;2023-10-19T15:07:50;14.40;1.00
62904;DHT22;49000;50.698;13.322;2023-10-19T15:10:18;14.40;1.00
62904;DHT22;49000;50.698;13.322;2023-10-19T15:12:44;14.20;1.00
62904;DHT22;49000;50.698;13.322;2023-10-19T15:15:10;14.10;1.00
62904;DHT22;49000;50.698;13.322;2023-10-19T15:17:40;14.00;1.00
62904;DHT22;49000;50.698;13.322;2023-10-19T15:20:07;14.00;1.00
62904;DHT22;49000;50.698;13.322;2023-10-19T15:22:35;13.90;1.00
62904;DHT22;49000;50.698;13.322;2023-10-19T15:25:01;13.80;1.00
62904;DHT22;49000;50.698;13.322;2023-10-19T15:27:27;13.70;1.00
62904;DHT22;49000;50.698;13.322;2023-10-19T15:29:55;13.70;1.00
62904;DHT22;49000;50.698;13.322;2023-10-19T15:32:25;13.50;1.00
62904;DHT22;49000;50.698;13.322;2023-10-19T15:34:51;13.40;1.00
62904;DHT22;49000;50.698;13.322;2023-10-19T15:37:17;13.30;1.00
62904;DHT22;49000;50.698;13.322;2023-10-19T15:39:43;13.20;1.00